createdAt,value
2022-08-22T00:02:09.690Z,16.10
2022-08-22T00:02:42.057Z,20.90
2022-08-22T00:03:06.550Z,16.80
2022-08-22T00:04:52.010Z,16.00
2022-08-22T00:07:24.345Z,16.00
2022-08-22T00:10:11.652Z,15.90
2022-08-22T00:12:53.309Z,15.80
2022-08-22T00:15:42.650Z,15.90
2022-08-22T00:18:15.564Z,15.70
2022-08-22T00:21:14.671Z,15.70
2022-08-22T00:23:59.960Z,15.80
2022-08-22T00:26:52.577Z,15.80
2022-08-22T00:29:38.613Z,15.80
2022-08-22T00:32:08.834Z,15.70
2022-08-22T00:34:40.618Z,15.70
2022-08-22T00:37:16.933Z,15.60
2022-08-22T00:39:52.974Z,15.50
2022-08-22T00:42:50.300Z,15.50
2022-08-22T00:45:47.672Z,15.40
2022-08-22T00:48:32.996Z,15.30
2022-08-22T00:51:18.752Z,15.20
2022-08-22T00:54:01.109Z,15.20
2022-08-22T00:56:48.898Z,15.30
2022-08-22T00:59:36.783Z,15.30
2022-08-22T01:02:14.749Z,15.30
2022-08-22T01:05:00.464Z,15.30
2022-08-22T01:07:46.514Z,15.20
2022-08-22T01:10:42.641Z,15.20
2022-08-22T01:13:15.488Z,15.30
2022-08-22T01:15:44.652Z,15.30
2022-08-22T01:18:31.669Z,15.20
2022-08-22T01:21:33.628Z,15.10
2022-08-22T01:24:22.275Z,15.10
2022-08-22T01:27:22.604Z,15.10
2022-08-22T01:30:16.538Z,15.10
2022-08-22T01:33:31.160Z,15.10
2022-08-22T01:36:09.900Z,15.00
2022-08-22T01:39:01.901Z,15.00
2022-08-22T01:41:46.747Z,15.00
2022-08-22T01:44:16.630Z,15.00
2022-08-22T01:47:01.136Z,15.00
2022-08-22T01:49:34.173Z,14.90
2022-08-22T01:52:13.015Z,15.00
2022-08-22T01:55:00.649Z,15.00
2022-08-22T01:57:27.848Z,15.00
2022-08-22T01:59:59.565Z,15.00
2022-08-22T02:02:41.602Z,15.00
2022-08-22T02:05:11.372Z,15.10
2022-08-22T02:08:05.606Z,15.10
2022-08-22T02:10:48.413Z,15.10
2022-08-22T02:13:30.538Z,15.10
2022-08-22T02:16:08.502Z,15.10
2022-08-22T02:18:52.657Z,15.10
2022-08-22T02:21:32.930Z,15.20
2022-08-22T02:24:24.627Z,15.00
2022-08-22T02:27:04.418Z,14.90
2022-08-22T02:29:43.800Z,14.80
2022-08-22T02:32:17.445Z,14.80
2022-08-22T02:35:03.671Z,14.80
2022-08-22T02:37:49.572Z,14.80
2022-08-22T02:40:41.001Z,14.90
2022-08-22T02:43:15.173Z,14.90
2022-08-22T02:46:22.225Z,14.90
2022-08-22T02:49:09.315Z,14.90
2022-08-22T02:52:03.066Z,14.80
2022-08-22T02:54:32.856Z,14.90
2022-08-22T02:57:06.720Z,14.80
2022-08-22T03:00:31.107Z,14.80
2022-08-22T03:02:59.127Z,14.80
2022-08-22T03:05:28.155Z,14.70
2022-08-22T03:08:21.123Z,14.60
2022-08-22T03:10:57.742Z,14.60
2022-08-22T03:13:52.758Z,14.50
2022-08-22T03:16:47.931Z,14.40
2022-08-22T03:19:44.029Z,14.30
2022-08-22T03:22:49.665Z,14.30
2022-08-22T03:25:30.673Z,14.20
2022-08-22T03:28:30.049Z,14.20
2022-08-22T03:31:01.027Z,14.30
2022-08-22T03:33:31.192Z,14.30
2022-08-22T03:36:09.876Z,14.30
2022-08-22T03:38:36.781Z,14.40
2022-08-22T03:41:19.118Z,14.30
2022-08-22T03:44:01.221Z,14.30
2022-08-22T03:47:04.807Z,14.30
2022-08-22T03:49:50.358Z,14.20
2022-08-22T03:52:56.054Z,14.20
2022-08-22T03:55:55.071Z,14.20
2022-08-22T03:58:57.754Z,14.20
2022-08-22T04:01:39.775Z,14.10
2022-08-22T04:04:47.454Z,14.10
2022-08-22T04:07:45.502Z,14.10
2022-08-22T04:10:51.674Z,14.10
2022-08-22T04:13:24.826Z,14.10
2022-08-22T04:16:11.972Z,14.00
2022-08-22T04:19:13.045Z,14.10
2022-08-22T04:21:49.245Z,14.00
2022-08-22T04:24:37.470Z,14.00
2022-08-22T04:27:32.671Z,14.00
2022-08-22T04:30:03.064Z,13.90
2022-08-22T04:32:47.490Z,13.80
2022-08-22T04:35:34.671Z,13.70
2022-08-22T04:38:16.764Z,13.60
2022-08-22T04:40:55.218Z,13.60
2022-08-22T04:43:33.233Z,13.50
2022-08-22T04:46:13.936Z,13.50
2022-08-22T04:48:53.061Z,13.60
2022-08-22T04:51:32.067Z,13.60
2022-08-22T04:54:40.679Z,13.60
2022-08-22T04:57:37.915Z,13.70
2022-08-22T05:00:08.008Z,13.60
2022-08-22T05:02:38.669Z,13.60
2022-08-22T05:05:13.561Z,13.60
2022-08-22T05:07:56.214Z,13.60
2022-08-22T05:10:27.960Z,13.70
2022-08-22T05:13:00.624Z,13.70
2022-08-22T05:15:35.284Z,13.70
2022-08-22T05:18:09.442Z,13.70
2022-08-22T05:20:40.171Z,13.70
2022-08-22T05:23:18.027Z,13.80
2022-08-22T05:25:48.007Z,13.80
2022-08-22T05:28:24.588Z,13.80
2022-08-22T05:30:51.878Z,13.80
2022-08-22T05:33:19.376Z,13.80
2022-08-22T05:36:09.231Z,13.90
2022-08-22T05:39:12.784Z,14.00
2022-08-22T05:41:41.507Z,14.00
2022-08-22T05:44:19.376Z,14.10
2022-08-22T05:47:06.237Z,14.20
2022-08-22T05:49:45.040Z,14.20
2022-08-22T05:52:37.152Z,14.30
2022-08-22T05:55:27.100Z,14.40
2022-08-22T05:58:03.341Z,14.40
2022-08-22T06:00:37.145Z,14.50
2022-08-22T06:03:28.326Z,14.50
2022-08-22T06:05:59.212Z,14.70
2022-08-22T06:08:34.507Z,14.80
2022-08-22T06:11:33.758Z,15.00
2022-08-22T06:14:37.386Z,15.20
2022-08-22T06:17:13.698Z,15.40
2022-08-22T06:19:44.980Z,15.70
2022-08-22T06:22:18.734Z,16.10
2022-08-22T06:24:47.601Z,16.50
2022-08-22T06:27:18.917Z,17.00
2022-08-22T06:29:53.538Z,17.30
2022-08-22T06:32:58.580Z,17.60
2022-08-22T06:35:22.816Z,17.90
2022-08-22T06:37:52.204Z,18.20
2022-08-22T06:40:19.573Z,18.50
2022-08-22T06:42:51.783Z,18.70
2022-08-22T06:45:32.370Z,19.00
2022-08-22T06:48:06.032Z,19.30
2022-08-22T06:50:41.285Z,19.60
2022-08-22T06:53:31.577Z,19.80
2022-08-22T06:56:04.383Z,20.10
2022-08-22T06:58:54.445Z,20.30
2022-08-22T07:01:25.750Z,20.70
2022-08-22T07:03:54.490Z,21.10
2022-08-22T07:06:34.398Z,21.40
2022-08-22T07:09:05.717Z,21.80
2022-08-22T07:11:39.591Z,22.10
2022-08-22T07:14:14.140Z,22.50
2022-08-22T07:16:53.809Z,22.90
2022-08-22T07:19:35.071Z,23.20
2022-08-22T07:22:30.435Z,23.40
2022-08-22T07:25:02.951Z,23.60
2022-08-22T07:27:41.745Z,23.80
2022-08-22T07:30:13.175Z,24.00
2022-08-22T07:33:25.267Z,24.10
2022-08-22T07:35:59.032Z,24.30
2022-08-22T07:38:43.013Z,24.40
2022-08-22T07:41:24.914Z,24.70
2022-08-22T07:44:00.844Z,24.90
2022-08-22T07:46:41.322Z,25.10
2022-08-22T07:49:10.972Z,25.40
2022-08-22T07:51:45.072Z,25.70
2022-08-22T07:54:21.794Z,25.90
2022-08-22T07:57:02.953Z,25.90
2022-08-22T07:59:33.203Z,26.10
2022-08-22T08:02:04.925Z,26.30
2022-08-22T08:04:39.990Z,26.50
2022-08-22T08:07:11.546Z,26.40
2022-08-22T08:09:47.040Z,26.40
2022-08-22T08:12:15.996Z,26.30
2022-08-22T08:14:45.423Z,26.50
2022-08-22T08:17:39.511Z,26.90
2022-08-22T08:20:11.599Z,27.20
2022-08-22T08:22:43.002Z,27.20
2022-08-22T08:25:15.578Z,27.00
2022-08-22T08:28:01.658Z,26.60
2022-08-22T08:30:35.354Z,26.20
2022-08-22T08:33:25.272Z,26.00
2022-08-22T08:36:06.635Z,25.90
2022-08-22T08:38:49.279Z,25.90
2022-08-22T08:41:33.991Z,26.10
2022-08-22T08:44:19.378Z,26.20
2022-08-22T08:46:55.903Z,26.00
2022-08-22T08:49:33.654Z,25.80
2022-08-22T08:52:28.503Z,25.70
2022-08-22T08:54:58.262Z,25.60
2022-08-22T08:58:22.685Z,25.40
2022-08-22T09:00:56.154Z,25.40
2022-08-22T09:03:55.512Z,25.20
2022-08-22T09:07:01.355Z,25.10
2022-08-22T09:09:29.259Z,25.00
2022-08-22T09:12:14.981Z,24.90
2022-08-22T09:15:00.726Z,25.10
2022-08-22T09:17:57.764Z,25.10
2022-08-22T09:21:11.285Z,25.10
2022-08-22T09:24:15.262Z,25.00
2022-08-22T09:26:50.284Z,24.70
2022-08-22T09:29:55.204Z,24.50
2022-08-22T09:32:35.695Z,24.30
2022-08-22T09:35:16.345Z,24.10
2022-08-22T09:38:13.453Z,24.00
2022-08-22T09:41:06.408Z,24.00
2022-08-22T09:43:45.695Z,23.90
2022-08-22T09:46:32.167Z,23.90
2022-08-22T09:49:08.376Z,24.00
2022-08-22T09:51:47.402Z,24.00
2022-08-22T09:54:31.404Z,24.20
2022-08-22T09:57:20.075Z,24.40
2022-08-22T10:00:02.094Z,24.60
2022-08-22T10:02:44.777Z,24.70
2022-08-22T10:05:40.836Z,24.40
2022-08-22T10:08:20.049Z,24.20
2022-08-22T10:11:19.008Z,24.20
2022-08-22T10:13:57.700Z,24.40
2022-08-22T10:16:56.277Z,24.70
2022-08-22T10:19:38.140Z,25.00
2022-08-22T10:22:23.598Z,25.10
2022-08-22T10:25:18.746Z,25.20
2022-08-22T10:28:19.975Z,25.30
2022-08-22T10:31:08.814Z,25.30
2022-08-22T10:33:47.218Z,25.20
2022-08-22T10:36:17.876Z,25.00
2022-08-22T10:38:47.251Z,25.00
2022-08-22T10:41:30.699Z,25.20
2022-08-22T10:44:06.766Z,25.20
2022-08-22T10:46:54.385Z,25.20
2022-08-22T10:49:43.242Z,25.10
2022-08-22T10:52:20.471Z,25.00
2022-08-22T10:54:57.969Z,24.90
2022-08-22T10:57:38.038Z,25.00
2022-08-22T11:00:31.165Z,25.20
2022-08-22T11:03:10.591Z,25.50
2022-08-22T11:05:46.927Z,25.60
2022-08-22T11:08:20.091Z,25.60
2022-08-22T11:10:52.164Z,25.70
2022-08-22T11:13:21.893Z,25.70
2022-08-22T11:16:07.037Z,25.80
2022-08-22T11:19:15.160Z,26.00
2022-08-22T11:21:51.011Z,26.20
2022-08-22T11:24:55.694Z,26.30
2022-08-22T11:27:42.166Z,26.30
2022-08-22T11:30:09.201Z,26.30
2022-08-22T11:32:49.731Z,26.30
2022-08-22T11:35:19.449Z,26.30
2022-08-22T11:38:00.146Z,26.40
2022-08-22T11:40:45.375Z,26.50
2022-08-22T11:43:44.676Z,26.50
2022-08-22T11:46:22.550Z,26.50
2022-08-22T11:49:11.175Z,26.40
2022-08-22T11:51:57.305Z,26.50
2022-08-22T11:54:49.642Z,26.70
2022-08-22T11:57:41.737Z,26.70
2022-08-22T12:00:26.685Z,26.80
2022-08-22T12:03:23.415Z,26.90
2022-08-22T12:06:16.774Z,26.80
2022-08-22T12:08:50.939Z,26.70
2022-08-22T12:11:43.483Z,26.60
2022-08-22T12:14:31.400Z,26.70
2022-08-22T12:17:51.103Z,26.90
2022-08-22T12:20:16.901Z,26.90
2022-08-22T12:22:49.848Z,26.70
2022-08-22T12:25:50.624Z,26.70
2022-08-22T12:28:52.915Z,26.70
2022-08-22T12:31:19.835Z,26.90
2022-08-22T12:34:33.994Z,26.90
2022-08-22T12:37:09.401Z,27.00
2022-08-22T12:40:09.500Z,27.00
2022-08-22T12:42:48.977Z,26.90
2022-08-22T12:45:46.209Z,26.90
2022-08-22T12:48:45.134Z,26.90
2022-08-22T12:51:43.808Z,26.50
2022-08-22T12:54:44.200Z,26.30
2022-08-22T12:57:45.641Z,26.20
2022-08-22T13:00:26.902Z,26.20
2022-08-22T13:02:57.769Z,26.40
2022-08-22T13:05:27.725Z,26.60
2022-08-22T13:08:04.429Z,26.70
2022-08-22T13:10:40.729Z,26.70
2022-08-22T13:13:12.462Z,26.70
2022-08-22T13:15:55.488Z,26.80
2022-08-22T13:18:30.641Z,26.90
2022-08-22T13:21:02.682Z,26.90
2022-08-22T13:23:39.960Z,26.70
2022-08-22T13:26:33.081Z,26.60
2022-08-22T13:29:27.472Z,26.70
2022-08-22T13:32:09.496Z,26.90
2022-08-22T13:35:02.549Z,26.70
2022-08-22T13:37:44.297Z,26.90
2022-08-22T13:40:23.110Z,26.70
2022-08-22T13:43:01.579Z,26.70
2022-08-22T13:45:30.347Z,27.00
2022-08-22T13:48:03.511Z,27.20
2022-08-22T13:50:37.529Z,27.60
2022-08-22T13:53:29.542Z,27.80
2022-08-22T13:56:15.624Z,27.90
2022-08-22T13:59:06.246Z,28.10
2022-08-22T14:01:50.657Z,28.20
2022-08-22T14:04:32.245Z,28.40
2022-08-22T14:07:06.072Z,28.60
2022-08-22T14:09:54.348Z,28.70
2022-08-22T14:13:05.974Z,28.70
2022-08-22T14:15:44.692Z,28.70
2022-08-22T14:18:30.514Z,28.60
2022-08-22T14:21:26.407Z,28.70
2022-08-22T14:23:59.031Z,28.80
2022-08-22T14:26:33.098Z,28.70
2022-08-22T14:29:13.366Z,28.50
2022-08-22T14:31:41.960Z,28.40
2022-08-22T14:34:13.903Z,28.10
2022-08-22T14:36:58.653Z,27.90
2022-08-22T14:39:34.929Z,27.80
2022-08-22T14:42:29.306Z,28.00
2022-08-22T14:45:17.677Z,28.20
2022-08-22T14:48:29.562Z,28.30
2022-08-22T14:50:53.050Z,28.30
2022-08-22T14:53:24.906Z,27.90
2022-08-22T14:56:24.737Z,27.70
2022-08-22T14:59:29.901Z,27.70
2022-08-22T15:02:09.624Z,28.00
2022-08-22T15:04:43.303Z,28.40
2022-08-22T15:07:12.642Z,28.40
2022-08-22T15:09:50.965Z,28.60
2022-08-22T15:12:21.002Z,28.60
2022-08-22T15:14:52.639Z,28.70
2022-08-22T15:17:52.735Z,28.70
2022-08-22T15:20:28.184Z,28.80
2022-08-22T15:23:00.604Z,28.60
2022-08-22T15:25:33.460Z,28.60
2022-08-22T15:28:14.146Z,28.50
2022-08-22T15:31:05.362Z,28.40
2022-08-22T15:33:35.499Z,28.20
2022-08-22T15:36:11.601Z,28.10
2022-08-22T15:38:55.328Z,28.20
2022-08-22T15:41:25.019Z,28.40
2022-08-22T15:44:14.847Z,28.50
2022-08-22T15:47:37.661Z,28.70
2022-08-22T15:50:14.685Z,28.70
2022-08-22T15:53:19.974Z,28.80
2022-08-22T15:56:05.072Z,28.90
2022-08-22T15:58:37.299Z,28.90
2022-08-22T16:01:18.902Z,28.90
2022-08-22T16:04:00.354Z,28.90
2022-08-22T16:06:51.117Z,28.80
2022-08-22T16:09:50.751Z,28.80
2022-08-22T16:12:33.273Z,28.80
2022-08-22T16:15:03.899Z,28.70
2022-08-22T16:17:30.945Z,28.60
2022-08-22T16:20:19.332Z,28.60
2022-08-22T16:22:59.190Z,28.70
2022-08-22T16:25:45.253Z,28.70
2022-08-22T16:28:58.115Z,28.60
2022-08-22T16:31:43.357Z,28.60
2022-08-22T16:34:16.761Z,28.50
2022-08-22T16:37:11.378Z,28.40
2022-08-22T16:39:46.924Z,28.40
2022-08-22T16:42:14.326Z,28.40
2022-08-22T16:44:50.253Z,28.40
2022-08-22T16:47:22.046Z,28.40
2022-08-22T16:49:52.082Z,28.30
2022-08-22T16:52:24.829Z,28.30
2022-08-22T16:54:53.906Z,28.30
2022-08-22T16:57:29.878Z,28.20
2022-08-22T17:00:35.967Z,28.20
2022-08-22T17:03:21.946Z,28.20
2022-08-22T17:06:03.948Z,28.10
2022-08-22T17:08:53.829Z,27.90
2022-08-22T17:11:40.550Z,27.60
2022-08-22T17:14:25.871Z,27.40
2022-08-22T17:17:19.853Z,27.30
2022-08-22T17:20:04.669Z,27.10
2022-08-22T17:23:00.053Z,26.90
2022-08-22T17:25:47.530Z,26.70
2022-08-22T17:28:17.734Z,26.60
2022-08-22T17:31:06.528Z,26.50
2022-08-22T17:34:15.876Z,26.40
2022-08-22T17:36:43.067Z,26.30
2022-08-22T17:39:24.282Z,26.20
2022-08-22T17:42:21.161Z,26.10
2022-08-22T17:45:03.516Z,26.10
2022-08-22T17:47:39.973Z,26.10
2022-08-22T17:50:18.595Z,26.00
2022-08-22T17:52:51.867Z,26.00
2022-08-22T17:55:26.924Z,25.90
2022-08-22T17:58:06.356Z,25.90
2022-08-22T18:00:37.257Z,25.80
2022-08-22T18:03:31.648Z,25.70
2022-08-22T18:06:11.595Z,25.70
2022-08-22T18:11:56.032Z,25.50
2022-08-22T18:14:51.121Z,25.40
2022-08-22T18:17:21.912Z,25.40
2022-08-22T18:20:02.226Z,25.20
2022-08-22T18:22:41.578Z,25.20
2022-08-22T18:25:11.576Z,25.00
2022-08-22T18:27:54.139Z,25.00
2022-08-22T18:30:38.318Z,24.90
2022-08-22T18:33:19.326Z,24.70
2022-08-22T18:36:20.280Z,24.60
2022-08-22T18:39:07.969Z,24.50
2022-08-22T18:41:50.929Z,24.40
2022-08-22T18:44:29.950Z,24.30
2022-08-22T18:47:16.845Z,24.30
2022-08-22T18:49:48.535Z,24.30
2022-08-22T18:52:20.407Z,24.30
2022-08-22T18:55:25.646Z,24.20
2022-08-22T18:58:33.288Z,24.10
2022-08-22T19:01:21.882Z,24.00
2022-08-22T19:04:16.950Z,23.90
2022-08-22T19:06:57.006Z,23.80
2022-08-22T19:09:51.360Z,23.60
2022-08-22T19:12:49.992Z,23.40
2022-08-22T19:15:41.536Z,23.20
2022-08-22T19:18:49.950Z,23.10
2022-08-22T19:21:51.025Z,23.00
2022-08-22T19:24:20.903Z,22.90
2022-08-22T19:27:08.981Z,22.70
2022-08-22T19:29:36.123Z,22.70
2022-08-22T19:32:12.764Z,22.70
2022-08-22T19:34:47.041Z,22.60
2022-08-22T19:37:31.077Z,22.40
2022-08-22T19:40:11.171Z,22.30
2022-08-22T19:42:44.177Z,22.20
2022-08-22T19:45:22.127Z,22.10
2022-08-22T19:47:57.097Z,22.10
2022-08-22T19:50:31.093Z,22.00
2022-08-22T19:53:07.262Z,21.90
2022-08-22T19:55:37.305Z,21.90
2022-08-22T19:58:32.937Z,21.80
2022-08-22T20:01:09.006Z,21.70
2022-08-22T20:03:51.368Z,21.60
2022-08-22T20:06:52.397Z,21.60
2022-08-22T20:09:38.517Z,21.50
2022-08-22T20:12:27.892Z,21.40
2022-08-22T20:14:55.356Z,21.30
2022-08-22T20:17:25.405Z,21.20
2022-08-22T20:22:52.906Z,21.00
2022-08-22T20:25:42.291Z,20.90
2022-08-22T20:28:34.393Z,20.90
2022-08-22T20:31:06.072Z,20.80
2022-08-22T20:33:36.905Z,21.90
2022-08-22T20:36:18.591Z,20.70
2022-08-22T20:39:16.838Z,20.70
2022-08-22T20:41:49.224Z,20.60
2022-08-22T20:44:24.183Z,20.60
2022-08-22T20:47:02.106Z,20.60
2022-08-22T20:49:42.168Z,20.50
2022-08-22T20:52:19.901Z,20.50
2022-08-22T20:54:58.887Z,20.50
2022-08-22T20:57:26.068Z,20.40
2022-08-22T21:00:12.700Z,20.30
2022-08-22T21:03:03.098Z,20.30
2022-08-22T21:05:34.735Z,20.30
2022-08-22T21:08:12.683Z,20.20
2022-08-22T21:10:59.576Z,20.20
2022-08-22T21:13:34.484Z,20.20
2022-08-22T21:16:12.865Z,20.20
2022-08-22T21:18:45.969Z,20.20
2022-08-22T21:21:34.425Z,20.10
2022-08-22T21:24:07.045Z,20.10
2022-08-22T21:26:39.161Z,20.10
2022-08-22T21:29:15.103Z,20.00
2022-08-22T21:32:06.880Z,20.00
2022-08-22T21:34:44.171Z,19.90
2022-08-22T21:37:26.024Z,19.90
2022-08-22T21:40:00.015Z,19.90
2022-08-22T21:42:36.189Z,19.90
2022-08-22T21:45:13.164Z,19.80
2022-08-22T21:47:41.955Z,19.80
2022-08-22T21:50:21.096Z,19.70
2022-08-22T21:52:54.097Z,19.60
2022-08-22T21:55:26.385Z,19.60
2022-08-22T21:58:02.594Z,19.50
2022-08-22T22:00:48.876Z,19.50
2022-08-22T22:03:19.512Z,19.50
2022-08-22T22:05:47.065Z,19.40
2022-08-22T22:08:13.997Z,19.30
2022-08-22T22:10:42.958Z,19.30
2022-08-22T22:13:10.750Z,19.20
2022-08-22T22:15:44.214Z,19.20
2022-08-22T22:18:17.644Z,19.10
2022-08-22T22:20:45.853Z,19.00
2022-08-22T22:23:13.257Z,18.20
2022-08-22T22:25:42.418Z,18.90
2022-08-22T22:28:22.791Z,18.80
2022-08-22T22:30:53.353Z,18.80
2022-08-22T22:33:23.649Z,18.70
2022-08-22T22:35:52.658Z,18.70
2022-08-22T22:38:23.877Z,18.60
2022-08-22T22:40:51.651Z,18.50
2022-08-22T22:43:19.420Z,18.50
2022-08-22T22:45:46.348Z,18.50
2022-08-22T22:48:17.528Z,18.50
2022-08-22T22:50:51.894Z,18.40
2022-08-22T22:53:20.044Z,18.40
2022-08-22T22:55:59.765Z,18.40
2022-08-22T22:58:28.645Z,18.30
2022-08-22T23:00:56.415Z,18.30
2022-08-22T23:03:24.753Z,18.30
2022-08-22T23:05:51.574Z,18.30
2022-08-22T23:08:18.478Z,18.30
2022-08-22T23:10:45.393Z,18.20
2022-08-22T23:13:12.255Z,18.20
2022-08-22T23:15:39.169Z,18.20
2022-08-22T23:18:06.065Z,18.10
2022-08-22T23:20:33.145Z,18.10
2022-08-22T23:23:00.246Z,18.00
2022-08-22T23:25:27.120Z,17.90
2022-08-22T23:27:54.502Z,17.80
2022-08-22T23:30:21.721Z,17.80
2022-08-22T23:32:48.755Z,17.80
2022-08-22T23:35:15.748Z,17.70
2022-08-22T23:37:42.663Z,17.70
2022-08-22T23:40:10.487Z,17.60
2022-08-22T23:42:37.436Z,17.60
2022-08-22T23:45:04.782Z,17.50
2022-08-22T23:47:31.638Z,17.50
2022-08-22T23:49:58.527Z,17.50
2022-08-22T23:52:31.157Z,17.50
2022-08-22T23:54:58.206Z,17.40
2022-08-22T23:57:27.318Z,17.40
2022-08-22T23:59:57.229Z,17.40
